createdAt,value
2019-03-11T00:01:21.537Z,9.53
2019-03-11T00:03:54.923Z,11.57
2019-03-11T00:06:28.275Z,11.17
2019-03-11T00:09:01.635Z,10.93
2019-03-11T00:11:35.005Z,10.77
2019-03-11T00:14:08.400Z,10.60
2019-03-11T00:16:41.829Z,9.73
2019-03-11T00:19:15.172Z,8.67
2019-03-11T00:21:48.534Z,10.57
2019-03-11T00:24:21.866Z,6.80
2019-03-11T00:26:55.224Z,8.20
2019-03-11T00:29:28.525Z,8.53
2019-03-11T00:32:01.925Z,7.03
2019-03-11T00:34:35.290Z,7.37
2019-03-11T00:37:08.639Z,6.77
2019-03-11T00:39:41.958Z,6.60
2019-03-11T00:42:15.330Z,7.40
2019-03-11T00:44:48.745Z,8.50
2019-03-11T00:47:22.172Z,8.50
2019-03-11T00:49:55.521Z,8.87
2019-03-11T00:52:28.919Z,9.07
2019-03-11T00:55:02.327Z,12.17
2019-03-11T00:57:35.689Z,11.23
2019-03-11T01:00:15.414Z,13.67
2019-03-11T01:02:48.852Z,13.30
2019-03-11T01:05:22.166Z,14.87
2019-03-11T01:07:55.588Z,15.70
2019-03-11T01:10:28.979Z,19.23
2019-03-11T01:13:02.351Z,16.57
2019-03-11T01:15:35.889Z,18.90
2019-03-11T01:18:09.247Z,16.33
2019-03-11T01:20:42.675Z,15.40
2019-03-11T01:23:16.133Z,15.63
2019-03-11T01:25:49.586Z,16.23
2019-03-11T01:28:23.035Z,17.07
2019-03-11T01:30:56.378Z,20.73
2019-03-11T01:33:29.753Z,20.00
2019-03-11T01:36:03.148Z,20.23
2019-03-11T01:38:36.517Z,15.63
2019-03-11T01:41:09.907Z,16.67
2019-03-11T01:43:43.340Z,14.97
2019-03-11T01:46:16.732Z,16.00
2019-03-11T01:48:50.119Z,14.70
2019-03-11T01:51:23.447Z,13.27
2019-03-11T01:53:56.904Z,15.63
2019-03-11T01:56:30.416Z,16.93
2019-03-11T01:59:03.847Z,14.77
2019-03-11T02:01:37.174Z,17.17
2019-03-11T02:04:10.553Z,13.13
2019-03-11T02:06:43.912Z,16.53
2019-03-11T02:09:19.401Z,18.17
2019-03-11T02:11:52.459Z,12.20
2019-03-11T02:14:25.887Z,10.30
2019-03-11T02:16:59.303Z,12.80
2019-03-11T02:19:32.716Z,15.73
2019-03-11T02:22:06.040Z,15.23
2019-03-11T02:24:39.466Z,15.30
2019-03-11T02:27:12.777Z,11.50
2019-03-11T02:29:46.135Z,17.40
2019-03-11T02:32:19.574Z,16.63
2019-03-11T02:34:53.006Z,17.67
2019-03-11T02:37:26.414Z,17.60
2019-03-11T02:39:59.797Z,18.63
2019-03-11T02:42:33.204Z,17.00
2019-03-11T02:45:08.708Z,15.23
2019-03-11T02:47:42.196Z,15.57
2019-03-11T02:50:15.571Z,15.10
2019-03-11T02:52:49.096Z,13.97
2019-03-11T02:55:22.465Z,14.47
2019-03-11T02:57:55.784Z,13.83
2019-03-11T03:00:29.280Z,14.10
2019-03-11T03:03:04.259Z,24.00
2019-03-11T03:05:39.329Z,13.57
2019-03-11T03:08:12.841Z,8.00
2019-03-11T03:10:46.165Z,9.23
2019-03-11T03:13:19.542Z,9.33
2019-03-11T03:15:52.864Z,10.47
2019-03-11T03:18:26.292Z,6.50
2019-03-11T03:20:59.628Z,7.23
2019-03-11T03:23:33.060Z,6.60
2019-03-11T03:26:06.492Z,5.37
2019-03-11T03:28:39.827Z,6.17
2019-03-11T03:31:13.208Z,6.53
2019-03-11T03:33:46.703Z,6.37
2019-03-11T03:36:20.111Z,5.67
2019-03-11T03:38:53.578Z,6.10
2019-03-11T03:41:26.992Z,7.70
2019-03-11T03:44:00.362Z,6.43
2019-03-11T03:46:33.897Z,7.20
2019-03-11T03:49:07.425Z,6.00
2019-03-11T03:51:40.827Z,6.50
2019-03-11T03:54:14.265Z,5.43
2019-03-11T03:56:47.637Z,6.77
2019-03-11T03:59:20.998Z,8.10
2019-03-11T04:01:54.307Z,6.70
2019-03-11T04:04:27.662Z,6.67
2019-03-11T04:07:01.000Z,8.00
2019-03-11T04:09:34.479Z,8.60
2019-03-11T04:12:07.802Z,8.30
2019-03-11T04:14:41.140Z,9.30
2019-03-11T04:17:14.705Z,11.03
2019-03-11T04:19:48.065Z,8.80
2019-03-11T04:22:21.457Z,9.90
2019-03-11T04:24:55.009Z,10.33
2019-03-11T04:27:28.382Z,10.20
2019-03-11T04:30:01.778Z,13.97
2019-03-11T04:32:35.166Z,10.87
2019-03-11T04:35:08.518Z,9.40
2019-03-11T04:37:41.900Z,10.67
2019-03-11T04:40:16.044Z,10.73
2019-03-11T04:42:49.497Z,10.80
2019-03-11T04:45:22.954Z,10.23
2019-03-11T04:47:56.268Z,10.67
2019-03-11T04:50:29.619Z,9.63
2019-03-11T04:53:02.931Z,10.30
2019-03-11T04:55:36.305Z,12.10
2019-03-11T04:58:09.694Z,10.80
2019-03-11T05:00:43.045Z,13.80
2019-03-11T05:03:16.392Z,10.53
2019-03-11T05:05:49.792Z,10.17
2019-03-11T05:08:23.726Z,8.97
2019-03-11T05:10:57.064Z,10.80
2019-03-11T05:13:30.477Z,8.70
2019-03-11T05:16:03.847Z,8.37
2019-03-11T05:18:37.166Z,8.13
2019-03-11T05:21:10.534Z,7.33
2019-03-11T05:23:44.325Z,7.77
2019-03-11T05:26:17.661Z,7.40
2019-03-11T05:28:51.075Z,8.63
2019-03-11T05:31:24.637Z,7.07
2019-03-11T05:33:57.956Z,7.23
2019-03-11T05:36:31.299Z,6.57
2019-03-11T05:39:06.159Z,4.90
2019-03-11T05:41:39.600Z,6.57
2019-03-11T05:44:12.969Z,6.20
2019-03-11T05:46:46.412Z,6.00
2019-03-11T05:49:19.798Z,5.60
2019-03-11T05:51:53.154Z,6.23
2019-03-11T05:54:26.496Z,5.57
2019-03-11T05:56:59.838Z,5.23
2019-03-11T05:59:33.164Z,6.23
2019-03-11T06:02:06.553Z,6.60
2019-03-11T06:04:39.856Z,5.67
2019-03-11T06:07:13.215Z,5.90
2019-03-11T06:09:46.550Z,5.37
2019-03-11T06:12:19.913Z,5.97
2019-03-11T06:14:53.375Z,6.00
2019-03-11T06:17:26.715Z,6.13
2019-03-11T06:20:01.692Z,5.33
2019-03-11T06:22:35.071Z,5.03
2019-03-11T06:25:08.506Z,5.20
2019-03-11T06:27:43.390Z,5.40
2019-03-11T06:30:16.805Z,5.53
2019-03-11T06:32:50.184Z,5.70
2019-03-11T06:35:23.543Z,5.10
2019-03-11T06:37:59.893Z,4.77
2019-03-11T06:40:33.240Z,5.63
2019-03-11T06:43:06.631Z,4.27
2019-03-11T06:45:39.982Z,5.20
2019-03-11T06:48:13.297Z,4.60
2019-03-11T06:50:46.638Z,4.53
2019-03-11T06:53:19.996Z,4.83
2019-03-11T06:55:53.310Z,4.40
2019-03-11T06:58:26.643Z,4.83
2019-03-11T07:01:00.072Z,4.07
2019-03-11T07:03:33.389Z,4.43
2019-03-11T07:06:06.812Z,4.37
2019-03-11T07:08:40.129Z,4.70
2019-03-11T07:11:13.478Z,3.97
2019-03-11T07:13:46.789Z,3.60
2019-03-11T07:16:20.139Z,3.97
2019-03-11T07:18:53.504Z,4.83
2019-03-11T07:21:26.847Z,4.00
2019-03-11T07:24:00.169Z,4.30
2019-03-11T07:26:33.590Z,4.17
2019-03-11T07:29:07.026Z,4.60
2019-03-11T07:31:40.403Z,4.97
2019-03-11T07:34:13.760Z,5.40
2019-03-11T07:36:47.107Z,4.73
2019-03-11T07:39:20.501Z,4.67
2019-03-11T07:41:53.837Z,4.03
2019-03-11T07:44:27.186Z,4.30
2019-03-11T07:47:00.618Z,4.37
2019-03-11T07:49:33.927Z,4.63
2019-03-11T07:52:07.332Z,4.40
2019-03-11T07:54:40.648Z,3.47
2019-03-11T07:57:14.056Z,3.63
2019-03-11T07:59:47.380Z,4.00
2019-03-11T08:02:20.801Z,4.27
2019-03-11T08:04:54.130Z,3.77
2019-03-11T08:07:27.794Z,3.23
2019-03-11T08:10:01.168Z,4.20
2019-03-11T08:12:34.515Z,4.53
2019-03-11T08:15:13.151Z,3.93
2019-03-11T08:17:46.574Z,4.27
2019-03-11T08:20:19.955Z,4.10
2019-03-11T08:22:53.390Z,3.70
2019-03-11T08:25:26.705Z,3.80
2019-03-11T08:28:00.031Z,3.73
2019-03-11T08:30:33.423Z,3.43
2019-03-11T08:33:06.831Z,3.10
2019-03-11T08:35:40.137Z,3.60
2019-03-11T08:38:13.571Z,3.77
2019-03-11T08:40:46.906Z,3.07
2019-03-11T08:43:20.314Z,2.83
2019-03-11T08:45:53.625Z,2.80
2019-03-11T08:48:28.503Z,2.93
2019-03-11T08:51:01.880Z,2.63
2019-03-11T08:53:35.214Z,2.60
2019-03-11T08:56:08.549Z,2.90
2019-03-11T08:58:41.892Z,2.87
2019-03-11T09:01:15.303Z,2.33
2019-03-11T09:03:48.619Z,2.17
2019-03-11T09:06:21.962Z,2.60
2019-03-11T09:08:55.269Z,3.13
2019-03-11T09:11:28.777Z,2.60
2019-03-11T09:14:02.092Z,3.00
2019-03-11T09:16:35.433Z,2.43
2019-03-11T09:19:08.735Z,2.40
2019-03-11T09:21:42.083Z,2.67
2019-03-11T09:24:19.352Z,2.43
2019-03-11T09:26:50.458Z,2.60
2019-03-11T09:29:23.851Z,2.40
2019-03-11T09:31:57.264Z,2.50
2019-03-11T09:34:30.577Z,2.53
2019-03-11T09:37:03.952Z,2.40
2019-03-11T09:39:37.323Z,2.00
2019-03-11T09:42:10.601Z,2.23
2019-03-11T09:44:43.919Z,2.30
2019-03-11T09:47:17.271Z,2.50
2019-03-11T09:49:51.491Z,2.07
2019-03-11T09:52:24.863Z,1.93
2019-03-11T09:54:58.288Z,1.97
2019-03-11T09:57:31.653Z,2.70
2019-03-11T10:00:16.917Z,2.13
2019-03-11T10:02:52.682Z,1.77
2019-03-11T10:05:25.486Z,1.63
2019-03-11T10:07:58.946Z,2.03
2019-03-11T10:10:32.310Z,1.70
2019-03-11T10:13:05.729Z,2.13
2019-03-11T10:15:39.109Z,1.90
2019-03-11T10:18:12.459Z,2.50
2019-03-11T10:20:45.835Z,2.30
2019-03-11T10:23:19.197Z,2.30
2019-03-11T10:25:52.500Z,2.07
2019-03-11T10:28:25.844Z,2.20
2019-03-11T10:30:59.237Z,2.03
2019-03-11T10:33:32.587Z,2.00
2019-03-11T10:36:05.967Z,1.50
2019-03-11T10:38:39.310Z,1.80
2019-03-11T10:41:12.698Z,1.80
2019-03-11T10:43:46.051Z,1.87
2019-03-11T10:46:19.368Z,1.90
2019-03-11T10:48:52.711Z,1.67
2019-03-11T10:51:26.018Z,1.47
2019-03-11T10:53:59.367Z,1.40
2019-03-11T10:56:32.809Z,1.40
2019-03-11T10:59:06.182Z,1.20
2019-03-11T11:01:39.494Z,1.60
2019-03-11T11:04:12.835Z,1.30
2019-03-11T11:06:46.147Z,1.40
2019-03-11T11:09:19.493Z,1.90
2019-03-11T11:11:52.809Z,1.63
2019-03-11T11:14:26.154Z,1.80
2019-03-11T11:16:59.475Z,1.80
2019-03-11T11:19:32.824Z,1.60
2019-03-11T11:22:06.278Z,1.77
2019-03-11T11:24:39.606Z,1.53
2019-03-11T11:27:12.946Z,2.17
2019-03-11T11:29:46.260Z,1.97
2019-03-11T11:32:19.612Z,1.87
2019-03-11T11:34:55.599Z,1.80
2019-03-11T11:37:29.059Z,2.20
2019-03-11T11:40:02.362Z,1.80
2019-03-11T11:42:35.769Z,1.70
2019-03-11T11:45:12.304Z,1.80
2019-03-11T11:47:45.706Z,1.60
2019-03-11T11:50:21.089Z,1.27
2019-03-11T11:52:54.442Z,1.70
2019-03-11T11:55:27.891Z,1.83
2019-03-11T11:58:01.256Z,1.80
2019-03-11T12:00:45.150Z,1.80
2019-03-11T12:03:18.503Z,1.50
2019-03-11T12:05:51.862Z,2.07
2019-03-11T12:08:25.203Z,1.80
2019-03-11T12:10:58.547Z,2.33
2019-03-11T12:13:31.945Z,1.63
2019-03-11T12:16:05.355Z,2.23
2019-03-11T12:18:38.672Z,2.60
2019-03-11T12:21:12.031Z,2.33
2019-03-11T12:23:46.706Z,2.20
2019-03-11T12:26:20.167Z,2.40
2019-03-11T12:28:53.592Z,2.77
2019-03-11T12:31:26.950Z,2.60
2019-03-11T12:34:01.806Z,2.30
2019-03-11T12:36:35.212Z,2.70
2019-03-11T12:39:08.701Z,3.10
2019-03-11T12:41:42.070Z,3.57
2019-03-11T12:44:15.426Z,3.37
2019-03-11T12:46:48.813Z,2.50
2019-03-11T12:49:22.153Z,2.37
2019-03-11T12:51:55.503Z,2.40
2019-03-11T12:54:28.844Z,2.70
2019-03-11T12:57:02.451Z,2.30
2019-03-11T12:59:40.453Z,2.03
2019-03-11T13:02:10.952Z,2.30
2019-03-11T13:04:44.347Z,1.50
2019-03-11T13:07:17.794Z,1.43
2019-03-11T13:09:51.227Z,1.60
2019-03-11T13:12:24.719Z,1.33
2019-03-11T13:14:58.049Z,1.57
2019-03-11T13:17:31.482Z,1.30
2019-03-11T13:20:07.982Z,1.97
2019-03-11T13:22:41.398Z,1.70
2019-03-11T13:25:14.829Z,1.10
2019-03-11T13:27:48.377Z,1.27
2019-03-11T13:30:21.876Z,1.40
2019-03-11T13:32:55.277Z,1.50
2019-03-11T13:35:28.829Z,1.60
2019-03-11T13:38:02.204Z,1.10
2019-03-11T13:40:35.597Z,1.30
2019-03-11T13:43:08.996Z,1.33
2019-03-11T13:45:42.352Z,1.60
2019-03-11T13:48:15.763Z,1.33
2019-03-11T13:50:49.162Z,1.00
2019-03-11T13:53:22.601Z,1.53
2019-03-11T13:55:55.956Z,1.47
2019-03-11T13:58:29.347Z,1.10
2019-03-11T14:01:02.730Z,1.10
2019-03-11T14:03:36.221Z,0.90
2019-03-11T14:06:09.742Z,1.10
2019-03-11T14:08:43.118Z,0.73
2019-03-11T14:11:16.471Z,0.80
2019-03-11T14:13:49.828Z,0.80
2019-03-11T14:16:23.254Z,0.73
2019-03-11T14:18:57.151Z,0.70
2019-03-11T14:21:30.509Z,0.50
2019-03-11T14:24:03.982Z,0.60
2019-03-11T14:26:37.340Z,0.50
2019-03-11T14:29:10.739Z,0.40
2019-03-11T14:31:44.113Z,0.30
2019-03-11T14:34:18.176Z,0.47
2019-03-11T14:36:52.786Z,0.60
2019-03-11T14:39:26.124Z,0.80
2019-03-11T14:41:59.494Z,0.40
2019-03-11T14:44:32.889Z,0.43
2019-03-11T14:47:06.430Z,0.40
2019-03-11T14:49:39.993Z,0.40
2019-03-11T14:52:13.328Z,0.40
2019-03-11T14:54:46.844Z,0.50
2019-03-11T14:57:20.182Z,0.60
2019-03-11T14:59:53.787Z,1.60
2019-03-11T15:02:27.103Z,1.17
2019-03-11T15:05:00.586Z,0.70
2019-03-11T15:07:34.155Z,0.50
2019-03-11T15:10:10.349Z,0.50
2019-03-11T15:12:43.769Z,0.50
2019-03-11T15:15:41.007Z,0.33
2019-03-11T15:18:14.365Z,0.40
2019-03-11T15:20:47.742Z,0.60
2019-03-11T15:23:21.276Z,1.00
2019-03-11T15:25:54.709Z,0.70
2019-03-11T15:28:28.076Z,0.90
2019-03-11T15:31:10.145Z,1.90
2019-03-11T15:33:36.815Z,1.67
2019-03-11T15:36:10.172Z,1.80
2019-03-11T15:38:43.705Z,1.73
2019-03-11T15:41:17.096Z,1.50
2019-03-11T15:43:52.091Z,1.40
2019-03-11T15:46:25.471Z,1.47
2019-03-11T15:48:58.969Z,1.20
2019-03-11T15:51:36.550Z,1.53
2019-03-11T15:54:10.718Z,1.53
2019-03-11T15:56:44.141Z,1.80
2019-03-11T15:59:17.573Z,1.90
2019-03-11T16:01:50.939Z,1.97
2019-03-11T16:04:24.281Z,2.03
2019-03-11T16:06:57.955Z,1.47
2019-03-11T16:09:31.368Z,2.23
2019-03-11T16:12:04.797Z,1.80
2019-03-11T16:14:48.710Z,1.43
2019-03-11T16:17:13.343Z,1.40
2019-03-11T16:19:46.724Z,1.50
2019-03-11T16:22:24.211Z,1.60
2019-03-11T16:24:55.332Z,1.50
2019-03-11T16:27:28.832Z,1.50
2019-03-11T16:30:02.233Z,1.80
2019-03-11T16:32:37.209Z,1.57
2019-03-11T16:35:10.917Z,2.00
2019-03-11T16:37:44.309Z,2.13
2019-03-11T16:40:17.834Z,2.00
2019-03-11T16:42:51.463Z,2.10
2019-03-11T16:45:24.964Z,2.43
2019-03-11T16:47:58.469Z,3.20
2019-03-11T16:50:34.904Z,2.60
2019-03-11T16:53:08.271Z,2.90
2019-03-11T16:55:43.337Z,2.97
2019-03-11T16:58:16.807Z,2.63
2019-03-11T17:00:51.985Z,2.90
2019-03-11T17:03:25.781Z,3.03
2019-03-11T17:05:59.243Z,3.00
2019-03-11T17:08:32.794Z,3.83
2019-03-11T17:11:06.219Z,4.00
2019-03-11T17:13:39.822Z,4.30
2019-03-11T17:16:13.287Z,4.07
2019-03-11T17:18:46.718Z,4.03
2019-03-11T17:21:20.157Z,3.77
2019-03-11T17:23:53.535Z,4.40
2019-03-11T17:26:27.089Z,3.67
2019-03-11T17:29:00.403Z,3.57
2019-03-11T17:31:33.819Z,3.77
2019-03-11T17:34:07.241Z,3.53
2019-03-11T17:36:40.634Z,2.70
2019-03-11T17:39:14.266Z,4.23
2019-03-11T17:41:47.712Z,3.70
2019-03-11T17:44:21.048Z,3.53
2019-03-11T17:46:54.446Z,3.27
2019-03-11T17:49:27.884Z,3.67
2019-03-11T17:52:01.278Z,2.73
2019-03-11T17:54:34.702Z,4.10
2019-03-11T17:57:08.108Z,3.47
2019-03-11T17:59:41.468Z,2.80
2019-03-11T18:02:14.970Z,3.87
2019-03-11T18:04:48.483Z,5.03
2019-03-11T18:07:21.919Z,5.37
2019-03-11T18:09:55.415Z,4.70
2019-03-11T18:12:28.748Z,5.63
2019-03-11T18:15:02.343Z,6.00
2019-03-11T18:17:35.697Z,5.20
2019-03-11T18:20:16.712Z,4.90
2019-03-11T18:22:50.229Z,6.80
2019-03-11T18:25:23.654Z,6.30
2019-03-11T18:27:56.986Z,7.13
2019-03-11T18:30:31.659Z,7.20
2019-03-11T18:33:05.124Z,6.70
2019-03-11T18:35:38.588Z,7.00
2019-03-11T18:38:12.068Z,7.40
2019-03-11T18:40:45.580Z,7.50
2019-03-11T18:43:20.995Z,7.60
2019-03-11T18:45:54.117Z,8.57
2019-03-11T18:48:27.452Z,8.30
2019-03-11T18:51:10.215Z,8.50
2019-03-11T18:53:35.996Z,9.30
2019-03-11T18:56:09.416Z,9.40
2019-03-11T18:58:42.741Z,8.90
2019-03-11T19:01:16.134Z,9.37
2019-03-11T19:03:49.579Z,9.17
2019-03-11T19:06:23.510Z,9.67
2019-03-11T19:08:56.905Z,10.03
2019-03-11T19:11:30.283Z,11.03
2019-03-11T19:14:04.083Z,10.30
2019-03-11T19:16:37.558Z,8.87
2019-03-11T19:19:11.035Z,9.93
2019-03-11T19:21:44.625Z,10.13
2019-03-11T19:24:19.319Z,10.53
2019-03-11T19:26:52.759Z,11.23
2019-03-11T19:29:26.134Z,10.50
2019-03-11T19:31:59.553Z,12.43
2019-03-11T19:34:34.689Z,11.07
2019-03-11T19:37:08.144Z,11.23
2019-03-11T19:39:41.510Z,10.77
2019-03-11T19:42:15.062Z,10.47
2019-03-11T19:44:48.382Z,10.97
2019-03-11T19:47:21.838Z,9.60
2019-03-11T19:49:57.065Z,9.73
2019-03-11T19:52:30.394Z,10.97
2019-03-11T19:55:04.087Z,11.63
2019-03-11T19:57:37.506Z,10.37
2019-03-11T20:00:24.815Z,10.63
2019-03-11T20:02:58.360Z,10.73
2019-03-11T20:05:34.759Z,10.77
2019-03-11T20:08:08.278Z,10.00
2019-03-11T20:10:41.625Z,10.73
2019-03-11T20:13:14.955Z,9.47
2019-03-11T20:15:48.513Z,10.00
2019-03-11T20:18:21.905Z,10.20
2019-03-11T20:20:55.354Z,11.20
2019-03-11T20:23:28.820Z,10.37
2019-03-11T20:26:02.288Z,10.67
2019-03-11T20:28:35.851Z,10.87
2019-03-11T20:31:09.390Z,10.97
2019-03-11T20:33:42.816Z,10.50
2019-03-11T20:36:20.936Z,10.37
2019-03-11T20:38:51.276Z,9.97
2019-03-11T20:41:24.666Z,10.57
2019-03-11T20:43:58.088Z,10.47
2019-03-11T20:46:31.557Z,10.07
2019-03-11T20:49:04.908Z,9.80
2019-03-11T20:51:38.249Z,11.10
2019-03-11T20:54:12.831Z,10.00
2019-03-11T20:56:46.502Z,10.43
2019-03-11T20:59:19.924Z,11.20
2019-03-11T21:01:53.402Z,10.77
2019-03-11T21:04:26.727Z,10.13
2019-03-11T21:07:00.147Z,10.00
2019-03-11T21:09:33.590Z,10.53
2019-03-11T21:12:07.078Z,10.30
2019-03-11T21:14:40.467Z,9.33
2019-03-11T21:17:25.263Z,10.33
2019-03-11T21:19:48.984Z,9.93
2019-03-11T21:22:22.395Z,9.77
2019-03-11T21:24:59.817Z,11.07
2019-03-11T21:27:30.884Z,10.77
2019-03-11T21:30:06.468Z,10.20
2019-03-11T21:32:39.804Z,10.57
2019-03-11T21:35:13.319Z,9.70
2019-03-11T21:37:46.921Z,11.10
2019-03-11T21:40:22.364Z,10.13
2019-03-11T21:42:55.888Z,9.57
2019-03-11T21:45:33.951Z,10.87
2019-03-11T21:48:04.410Z,8.37
2019-03-11T21:50:37.889Z,9.23
2019-03-11T21:53:11.474Z,8.63
2019-03-11T21:55:44.877Z,9.80
2019-03-11T21:58:18.278Z,9.77
2019-03-11T22:00:51.753Z,8.37
2019-03-11T22:03:25.143Z,7.87
2019-03-11T22:05:58.640Z,10.20
2019-03-11T22:08:32.210Z,9.50
2019-03-11T22:11:05.712Z,8.17
2019-03-11T22:13:39.066Z,8.67
2019-03-11T22:16:12.418Z,9.40
2019-03-11T22:18:45.813Z,10.43
2019-03-11T22:21:19.754Z,10.23
2019-03-11T22:23:53.690Z,9.17
2019-03-11T22:26:28.069Z,10.27
2019-03-11T22:29:01.598Z,8.90
2019-03-11T22:31:35.005Z,8.87
2019-03-11T22:34:08.482Z,8.03
2019-03-11T22:36:41.891Z,8.60
2019-03-11T22:39:15.469Z,7.90
2019-03-11T22:41:48.794Z,10.00
2019-03-11T22:44:22.140Z,9.37
2019-03-11T22:46:55.542Z,8.33
2019-03-11T22:49:28.942Z,8.57
2019-03-11T22:52:02.340Z,9.50
2019-03-11T22:54:35.747Z,8.73
2019-03-11T22:57:09.140Z,9.07
2019-03-11T22:59:42.566Z,9.23
2019-03-11T23:02:15.997Z,8.33
2019-03-11T23:04:49.314Z,8.90
2019-03-11T23:07:22.710Z,8.90
2019-03-11T23:09:56.092Z,8.00
2019-03-11T23:12:29.435Z,8.07
2019-03-11T23:15:03.292Z,7.73
2019-03-11T23:17:36.709Z,7.60
2019-03-11T23:20:10.169Z,7.63
2019-03-11T23:22:43.633Z,7.83
2019-03-11T23:25:16.961Z,7.57
2019-03-11T23:27:50.370Z,7.37
2019-03-11T23:30:23.847Z,7.70
2019-03-11T23:32:57.251Z,6.33
2019-03-11T23:35:30.594Z,7.07
2019-03-11T23:38:03.955Z,7.53
2019-03-11T23:40:37.338Z,6.93
2019-03-11T23:43:10.733Z,8.27
2019-03-11T23:45:44.117Z,8.00
2019-03-11T23:48:17.465Z,7.90
2019-03-11T23:50:50.946Z,8.33
2019-03-11T23:53:24.330Z,7.23
2019-03-11T23:55:57.822Z,7.57
2019-03-11T23:58:31.170Z,7.77
